Terminal Aerodrome Forecast
Issued by NWS

Home | Current Version | Previous Version | Text Only | Print | Product List | Glossary Off
Versions: 1 2 3 4 5 6 7 8 9 10 11 12 13 14 15 16 17 18 19 20

000
FTUS42 KMHX 161700
TAFOAJ
TAF
KOAJ 161734Z 1618/1718 34005KT P6SM SCT040
     FM170000 VRB03KT P6SM BKN040
     FM170700 00000KT 5SM BR SCT007 BKN025
     FM171500 06007KT P6SM BKN035
      AMD LTD TO CLD VIS AND WIND=

USA.gov is the U.S. government's official web portal to all federal, state and local government web resources and services.